createdAt,value
2022-07-26T00:00:55.457Z,79.16
2022-07-26T00:04:57.101Z,78.39
2022-07-26T00:08:58.958Z,77.43
2022-07-26T00:13:00.569Z,76.65
2022-07-26T00:17:02.823Z,76.06
2022-07-26T00:21:04.815Z,75.77
2022-07-26T00:25:09.637Z,74.99
2022-07-26T00:29:11.934Z,74.77
2022-07-26T00:33:13.751Z,74.52
2022-07-26T00:37:20.079Z,74.38
2022-07-26T00:41:22.407Z,74.51
2022-07-26T00:45:24.345Z,74.23
2022-07-26T00:49:26.011Z,74.44
2022-07-26T00:53:27.701Z,74.25
2022-07-26T00:57:29.308Z,74.20
2022-07-26T01:01:33.454Z,73.87
2022-07-26T01:05:35.576Z,74.07
2022-07-26T01:09:39.057Z,74.66
2022-07-26T01:13:50.824Z,75.19
2022-07-26T01:17:52.458Z,75.13
2022-07-26T01:21:54.280Z,75.74
2022-07-26T01:25:55.939Z,75.93
2022-07-26T01:29:58.155Z,76.27
2022-07-26T01:33:59.828Z,76.64
2022-07-26T01:38:01.473Z,77.07
2022-07-26T01:42:03.298Z,77.84
2022-07-26T01:46:07.430Z,78.44
2022-07-26T01:50:09.794Z,78.78
2022-07-26T01:54:11.884Z,79.21
2022-07-26T01:58:14.008Z,79.57
2022-07-26T02:02:15.854Z,79.96
2022-07-26T02:06:17.685Z,80.36
2022-07-26T02:10:19.950Z,80.26
2022-07-26T02:14:25.758Z,80.82
2022-07-26T02:18:30.481Z,80.79
2022-07-26T02:22:32.177Z,81.24
2022-07-26T02:26:33.896Z,81.29
2022-07-26T02:30:35.679Z,82.08
2022-07-26T02:34:37.875Z,82.28
2022-07-26T02:38:39.595Z,82.44
2022-07-26T02:42:41.244Z,82.83
2022-07-26T02:46:42.966Z,83.08
2022-07-26T02:50:44.684Z,83.31
2022-07-26T02:54:46.386Z,83.49
2022-07-26T02:58:48.035Z,83.72
2022-07-26T03:02:51.310Z,83.73
2022-07-26T03:06:53.047Z,84.10
2022-07-26T03:10:54.747Z,84.20
2022-07-26T03:14:56.390Z,84.22
2022-07-26T03:18:58.399Z,84.75
2022-07-26T03:23:00.052Z,84.99
2022-07-26T03:27:01.725Z,85.00
2022-07-26T03:31:03.808Z,84.94
2022-07-26T03:35:06.597Z,85.22
2022-07-26T03:39:08.268Z,84.99
2022-07-26T03:43:09.954Z,85.32
2022-07-26T03:47:11.932Z,85.37
2022-07-26T03:51:13.567Z,85.58
2022-07-26T03:55:33.697Z,85.33
2022-07-26T03:59:35.446Z,85.39
2022-07-26T04:03:37.132Z,85.32
2022-07-26T04:07:52.487Z,85.24
2022-07-26T04:11:54.598Z,84.71
2022-07-26T04:15:56.254Z,84.60
2022-07-26T04:19:58.559Z,84.73
2022-07-26T04:24:00.400Z,85.69
2022-07-26T04:28:02.354Z,86.72
2022-07-26T04:32:04.099Z,87.23
2022-07-26T04:36:05.878Z,87.35
2022-07-26T04:40:08.806Z,88.00
2022-07-26T04:44:10.909Z,88.07
2022-07-26T04:48:13.593Z,88.44
2022-07-26T04:52:15.324Z,88.28
2022-07-26T04:56:17.000Z,89.20
2022-07-26T05:00:24.274Z,89.60
2022-07-26T05:04:26.445Z,89.84
2022-07-26T05:08:28.095Z,89.85
2022-07-26T05:12:30.839Z,90.48
2022-07-26T05:16:32.567Z,90.95
2022-07-26T05:20:35.217Z,91.39
2022-07-26T05:24:36.822Z,92.10
2022-07-26T05:28:39.466Z,92.04
2022-07-26T05:32:41.911Z,92.23
2022-07-26T05:36:43.498Z,92.26
2022-07-26T05:40:50.177Z,92.10
2022-07-26T05:44:52.676Z,92.43
2022-07-26T05:48:54.396Z,92.12
2022-07-26T05:52:56.064Z,92.38
2022-07-26T05:56:57.680Z,92.10
2022-07-26T06:00:59.461Z,92.33
2022-07-26T06:05:01.077Z,92.45
2022-07-26T06:09:03.152Z,92.15
2022-07-26T06:13:04.742Z,92.30
2022-07-26T06:17:06.530Z,92.09
2022-07-26T06:21:08.570Z,91.49
2022-07-26T06:25:10.206Z,91.54
2022-07-26T06:29:11.797Z,91.63
2022-07-26T06:33:13.464Z,91.02
2022-07-26T06:37:15.143Z,90.48
2022-07-26T06:41:16.768Z,90.22
2022-07-26T06:45:18.539Z,89.70
2022-07-26T06:49:22.744Z,88.48
2022-07-26T06:53:24.654Z,88.20
2022-07-26T06:57:26.685Z,87.36
2022-07-26T07:01:57.882Z,86.73
2022-07-26T07:05:51.077Z,86.26
2022-07-26T07:09:52.863Z,85.43
2022-07-26T07:13:54.507Z,84.70
2022-07-26T07:17:56.103Z,84.64
2022-07-26T07:21:57.697Z,84.82
2022-07-26T07:25:59.859Z,85.48
2022-07-26T07:30:04.313Z,86.23
2022-07-26T07:34:07.570Z,86.80
2022-07-26T07:38:10.380Z,86.63
2022-07-26T07:42:12.150Z,86.71
2022-07-26T07:46:14.026Z,86.35
2022-07-26T07:50:15.804Z,85.23
2022-07-26T07:54:19.931Z,84.44
2022-07-26T07:58:24.204Z,83.31
2022-07-26T08:02:25.918Z,81.42
2022-07-26T08:06:27.547Z,81.25
2022-07-26T08:10:30.359Z,81.23
2022-07-26T08:14:32.016Z,80.48
2022-07-26T08:18:33.669Z,79.06
2022-07-26T08:22:35.379Z,78.39
2022-07-26T08:26:37.034Z,77.41
2022-07-26T08:30:38.816Z,76.15
2022-07-26T08:34:40.488Z,75.27
2022-07-26T08:38:42.545Z,74.18
2022-07-26T08:42:52.677Z,72.75
2022-07-26T08:46:54.605Z,73.16
2022-07-26T08:50:57.023Z,73.13
2022-07-26T08:54:58.678Z,72.74
2022-07-26T08:59:03.862Z,71.34
2022-07-26T09:03:05.569Z,70.71
2022-07-26T09:07:13.462Z,70.86
2022-07-26T09:11:35.389Z,70.16
2022-07-26T09:15:37.115Z,70.95
2022-07-26T09:19:39.027Z,72.08
2022-07-26T09:23:44.049Z,72.22
2022-07-26T09:27:45.702Z,72.23
2022-07-26T09:31:47.628Z,72.38
2022-07-26T09:36:08.107Z,71.39
2022-07-26T09:40:12.828Z,71.29
2022-07-26T09:44:23.162Z,71.35
2022-07-26T09:48:36.526Z,71.15
2022-07-26T09:53:02.052Z,70.66
2022-07-26T09:57:04.202Z,70.13
2022-07-26T10:01:06.951Z,70.22
2022-07-26T10:05:08.890Z,69.95
2022-07-26T10:09:11.616Z,70.09
2022-07-26T10:13:13.914Z,69.07
2022-07-26T10:17:35.238Z,68.65
2022-07-26T10:21:37.583Z,67.96
2022-07-26T10:25:47.743Z,67.49
2022-07-26T10:29:49.459Z,67.29
2022-07-26T10:33:52.897Z,68.15
2022-07-26T10:38:13.790Z,68.20
2022-07-26T10:42:15.479Z,67.55
2022-07-26T10:46:17.841Z,67.47
2022-07-26T10:50:32.532Z,67.33
2022-07-26T10:54:59.062Z,65.30
2022-07-26T10:59:01.472Z,66.07
2022-07-26T11:03:03.170Z,65.39
2022-07-26T11:07:04.908Z,65.05
2022-07-26T11:11:06.580Z,64.42
2022-07-26T11:15:18.845Z,63.38
2022-07-26T11:19:25.211Z,63.44
2022-07-26T11:23:35.745Z,63.48
2022-07-26T11:27:37.439Z,63.56
2022-07-26T11:31:55.569Z,62.73
2022-07-26T11:36:03.944Z,62.41
2022-07-26T11:40:05.987Z,62.21
2022-07-26T11:44:16.490Z,60.60
2022-07-26T11:48:18.327Z,60.74
2022-07-26T11:52:25.450Z,60.45
2022-07-26T11:56:28.938Z,59.74
2022-07-26T12:00:30.763Z,58.70
2022-07-26T12:04:38.394Z,58.94
2022-07-26T12:08:45.919Z,58.91
2022-07-26T12:12:49.005Z,58.46
2022-07-26T12:16:50.737Z,58.04
2022-07-26T12:21:05.996Z,57.38
2022-07-26T12:25:08.287Z,57.52
2022-07-26T12:29:24.932Z,56.45
2022-07-26T12:33:26.837Z,56.99
2022-07-26T12:37:48.623Z,56.63
2022-07-26T12:41:54.136Z,56.81
2022-07-26T12:45:55.822Z,55.97
2022-07-26T12:49:58.240Z,55.92
2022-07-26T12:53:59.906Z,55.75
2022-07-26T12:58:01.575Z,55.48
2022-07-26T13:02:04.574Z,55.47
2022-07-26T13:06:07.062Z,55.26
2022-07-26T13:14:34.198Z,53.23
2022-07-26T13:18:35.807Z,54.10
2022-07-26T13:22:37.467Z,53.86
2022-07-26T13:26:39.083Z,53.71
2022-07-26T13:30:43.606Z,53.28
2022-07-26T13:34:45.375Z,52.69
2022-07-26T13:38:47.124Z,52.88
2022-07-26T13:42:51.879Z,52.44
2022-07-26T13:46:53.616Z,51.97
2022-07-26T13:50:55.524Z,51.57
2022-07-26T13:54:57.132Z,50.95
2022-07-26T13:58:58.876Z,50.95
2022-07-26T14:03:00.750Z,50.62
2022-07-26T14:07:02.521Z,51.08
2022-07-26T14:11:05.194Z,50.95
2022-07-26T14:15:12.987Z,52.03
2022-07-26T14:19:18.567Z,52.44
2022-07-26T14:23:20.197Z,52.95
2022-07-26T14:27:22.177Z,52.99
2022-07-26T14:31:24.257Z,52.15
2022-07-26T14:35:26.102Z,51.58
2022-07-26T14:39:27.772Z,51.76
2022-07-26T14:43:29.631Z,51.54
2022-07-26T14:47:31.241Z,51.41
2022-07-26T14:51:32.920Z,51.27
2022-07-26T14:55:34.572Z,51.01
2022-07-26T14:59:36.219Z,50.95
2022-07-26T15:03:37.937Z,50.67
2022-07-26T15:07:40.998Z,50.09
2022-07-26T15:11:42.678Z,50.89
2022-07-26T15:15:44.307Z,50.58
2022-07-26T15:19:45.908Z,50.69
2022-07-26T15:23:47.707Z,50.83
2022-07-26T15:27:49.822Z,50.77
2022-07-26T15:31:51.655Z,50.81
2022-07-26T15:35:55.447Z,50.97
2022-07-26T15:39:57.215Z,50.74
2022-07-26T15:43:58.932Z,49.98
2022-07-26T15:48:15.029Z,49.70
2022-07-26T15:52:19.996Z,49.61
2022-07-26T15:56:21.758Z,50.39
2022-07-26T16:00:23.492Z,50.49
2022-07-26T16:04:25.186Z,50.75
2022-07-26T16:08:26.819Z,50.45
2022-07-26T16:12:29.626Z,50.58
2022-07-26T16:16:32.217Z,50.59
2022-07-26T16:20:34.108Z,50.37
2022-07-26T16:24:37.104Z,50.63
2022-07-26T16:28:38.782Z,50.54
2022-07-26T16:32:41.565Z,50.17
2022-07-26T16:36:43.187Z,50.59
2022-07-26T16:40:44.921Z,50.57
2022-07-26T16:44:46.592Z,51.04
2022-07-26T16:48:48.208Z,50.86
2022-07-26T16:52:49.914Z,51.25
2022-07-26T16:56:51.600Z,51.06
2022-07-26T17:00:53.499Z,51.60
2022-07-26T17:04:57.196Z,51.47
2022-07-26T17:08:58.970Z,51.51
2022-07-26T17:13:00.603Z,51.80
2022-07-26T17:17:02.205Z,52.46
2022-07-26T17:21:04.376Z,52.37
2022-07-26T17:25:07.468Z,52.47
2022-07-26T17:29:09.440Z,52.90
2022-07-26T17:33:11.392Z,53.10
2022-07-26T17:37:13.065Z,53.10
2022-07-26T17:41:18.264Z,53.47
2022-07-26T17:45:20.385Z,52.86
2022-07-26T17:49:22.056Z,53.13
2022-07-26T17:53:31.652Z,53.44
2022-07-26T17:57:36.416Z,53.62
2022-07-26T18:01:38.317Z,53.79
2022-07-26T18:05:52.550Z,53.58
2022-07-26T18:09:54.235Z,53.50
2022-07-26T18:13:56.368Z,53.78
2022-07-26T18:17:57.987Z,54.08
2022-07-26T18:22:04.106Z,54.73
2022-07-26T18:26:07.492Z,55.23
2022-07-26T18:30:09.306Z,55.43
2022-07-26T18:34:10.941Z,55.87
2022-07-26T18:38:12.739Z,55.96
2022-07-26T18:42:14.457Z,56.32
2022-07-26T18:46:16.116Z,56.41
2022-07-26T18:50:19.172Z,56.88
2022-07-26T18:54:20.793Z,57.02
2022-07-26T18:58:25.498Z,57.14
2022-07-26T19:02:29.417Z,57.83
2022-07-26T19:06:31.053Z,58.22
2022-07-26T19:10:32.739Z,58.40
2022-07-26T19:14:34.373Z,58.41
2022-07-26T19:18:36.058Z,58.78
2022-07-26T19:22:38.115Z,58.68
2022-07-26T19:26:39.719Z,58.51
2022-07-26T19:30:41.990Z,58.27
2022-07-26T19:34:43.731Z,58.69
2022-07-26T19:38:45.407Z,58.64
2022-07-26T19:42:47.081Z,58.92
2022-07-26T19:46:50.232Z,59.33
2022-07-26T19:50:53.604Z,59.81
2022-07-26T19:54:55.347Z,59.95
2022-07-26T19:58:57.962Z,60.31
2022-07-26T20:03:00.574Z,60.48
2022-07-26T20:07:03.317Z,60.78
2022-07-26T20:11:04.956Z,60.80
2022-07-26T20:15:08.097Z,61.24
2022-07-26T20:19:09.946Z,61.18
2022-07-26T20:23:11.813Z,61.13
2022-07-26T20:27:13.442Z,61.32
2022-07-26T20:31:15.092Z,61.20
2022-07-26T20:35:16.770Z,61.51
2022-07-26T20:39:18.354Z,61.61
2022-07-26T20:43:22.041Z,61.82
2022-07-26T20:47:23.716Z,61.63
2022-07-26T20:51:25.457Z,61.96
2022-07-26T20:55:27.285Z,62.15
2022-07-26T20:59:28.953Z,61.94
2022-07-26T21:03:30.643Z,62.51
2022-07-26T21:07:55.960Z,62.41
2022-07-26T21:11:54.746Z,62.67
2022-07-26T21:15:56.385Z,62.71
2022-07-26T21:19:58.966Z,62.80
2022-07-26T21:24:00.601Z,63.25
2022-07-26T21:28:02.256Z,63.17
2022-07-26T21:32:04.217Z,63.37
2022-07-26T21:36:06.111Z,63.56
2022-07-26T21:40:08.245Z,63.61
2022-07-26T21:44:09.966Z,63.89
2022-07-26T21:48:11.700Z,63.97
2022-07-26T21:52:13.415Z,64.64
2022-07-26T21:56:15.114Z,64.78
2022-07-26T22:00:17.728Z,64.73
2022-07-26T22:04:21.922Z,65.13
2022-07-26T22:08:23.986Z,65.02
2022-07-26T22:12:25.672Z,65.20
2022-07-26T22:16:27.349Z,65.42
2022-07-26T22:20:31.254Z,65.48
2022-07-26T22:24:32.930Z,65.91
2022-07-26T22:28:34.845Z,66.10
2022-07-26T22:32:36.620Z,65.97
2022-07-26T22:36:43.486Z,66.04
2022-07-26T22:40:47.047Z,66.18
2022-07-26T22:44:48.671Z,66.51
2022-07-26T22:48:50.391Z,66.45
2022-07-26T22:52:52.589Z,66.45
2022-07-26T22:56:54.335Z,66.39
2022-07-26T23:00:56.212Z,66.37
2022-07-26T23:04:57.872Z,66.65
2022-07-26T23:08:59.529Z,66.54
2022-07-26T23:13:01.159Z,66.59
2022-07-26T23:17:02.881Z,66.66
2022-07-26T23:21:04.586Z,66.77
2022-07-26T23:25:06.585Z,66.80
2022-07-26T23:29:08.877Z,66.80
2022-07-26T23:33:10.654Z,66.95
2022-07-26T23:37:12.352Z,67.38
2022-07-26T23:41:13.977Z,67.44
2022-07-26T23:45:15.583Z,67.70
2022-07-26T23:49:17.676Z,67.72
2022-07-26T23:53:19.534Z,67.86
2022-07-26T23:57:28.629Z,68.30
